KISO/ISO METAR and TAF weather

Enter ICAO airport designator
Station Type Date Time Source
KISO METAR 2022/11/27 08:15 UTC NOAA

KISO 270815Z AUTO 00000KT 10SM CLR 10/07 A3003 RMK AO2 T00970065


Station Type Date Time Source
KISO Decoded METAR 2022/11/27 08:15 UTC NOAA

Kinston, Kinston Regional Jetport at Stallings Field, NC, United States (KISO) 35-20N 077-37W
Nov 27, 2022 - 03:15 AM EST / 2022.11.27 0815 UTC
Wind: Calm:0
Visibility: 10 mile(s):0
Sky conditions: clear
Temperature: 49.5 F (9.7 C)
Dew Point: 43.7 F (6.5 C)
Relative Humidity: 80%
Pressure (altimeter): 30.03 in. Hg (1016 hPa)
ob: KISO 270815Z AUTO 00000KT 10SM CLR 10/07 A3003 RMK AO2 T00970065
cycle: 8

Station Type Date Time Source
KISO TAF 2022/11/27 06:40 UTC NOAA

TAF KISO 270537Z 2706/2806 VRB03KT P6SM BKN250
FM271200 16011G17KT 6SM -SHRA BR OVC022
FM271500 17013G21KT 4SM SHRA BR OVC008
FM272000 20016G27KT P6SM BKN019
AMD LTD TO CLD VIS AND WIND

Example: see airport list